sensor_id;sensor_type;location;lat;lon;timestamp;pressure;altitude;pressure_sealevel;temperature;humidity
52591;BME280;38483;42.620;25.394;2023-09-19T00:01:41;97449.97;;;17.56;72.39
52591;BME280;38483;42.620;25.394;2023-09-19T00:04:08;97425.91;;;17.24;73.31
52591;BME280;38483;42.620;25.394;2023-09-19T00:06:37;97431.75;;;17.54;72.47
52591;BME280;38483;42.620;25.394;2023-09-19T00:09:04;97454.31;;;17.95;71.43
52591;BME280;38483;42.620;25.394;2023-09-19T00:11:31;97452.09;;;18.01;71.35
52591;BME280;38483;42.620;25.394;2023-09-19T00:13:58;97453.16;;;17.86;71.22
52591;BME280;38483;42.620;25.394;2023-09-19T00:16:26;97441.75;;;17.35;72.64
52591;BME280;38483;42.620;25.394;2023-09-19T00:18:54;97444.78;;;17.02;74.32
52591;BME280;38483;42.620;25.394;2023-09-19T00:21:21;97440.03;;;17.22;74.08
52591;BME280;38483;42.620;25.394;2023-09-19T00:23:49;97441.72;;;17.49;72.95
52591;BME280;38483;42.620;25.394;2023-09-19T00:26:18;97451.25;;;17.63;72.20
52591;BME280;38483;42.620;25.394;2023-09-19T00:28:48;97447.91;;;17.73;71.53
52591;BME280;38483;42.620;25.394;2023-09-19T00:31:19;97401.31;;;17.27;71.88
52591;BME280;38483;42.620;25.394;2023-09-19T00:33:47;97451.44;;;17.60;71.67
52591;BME280;38483;42.620;25.394;2023-09-19T00:36:15;97407.56;;;17.12;72.56
52591;BME280;38483;42.620;25.394;2023-09-19T00:38:42;97447.84;;;17.09;73.49
52591;BME280;38483;42.620;25.394;2023-09-19T00:41:11;97447.72;;;16.98;74.14
52591;BME280;38483;42.620;25.394;2023-09-19T00:43:39;97441.53;;;17.26;73.08
52591;BME280;38483;42.620;25.394;2023-09-19T00:46:07;97431.25;;;17.23;72.73
52591;BME280;38483;42.620;25.394;2023-09-19T00:48:41;97450.56;;;17.47;72.32
52591;BME280;38483;42.620;25.394;2023-09-19T00:51:11;97441.25;;;17.43;72.36
52591;BME280;38483;42.620;25.394;2023-09-19T00:53:43;97429.34;;;17.12;72.84
52591;BME280;38483;42.620;25.394;2023-09-19T00:56:14;97440.44;;;16.62;74.86
52591;BME280;38483;42.620;25.394;2023-09-19T00:58:47;97430.75;;;16.22;76.10
52591;BME280;38483;42.620;25.394;2023-09-19T01:01:14;97415.75;;;15.97;76.78
52591;BME280;38483;42.620;25.394;2023-09-19T01:03:44;97451.66;;;16.22;77.14
52591;BME280;38483;42.620;25.394;2023-09-19T01:06:12;97435.38;;;16.04;77.94
52591;BME280;38483;42.620;25.394;2023-09-19T01:08:39;97448.97;;;16.23;77.79
52591;BME280;38483;42.620;25.394;2023-09-19T01:11:38;97451.41;;;15.84;78.62
52591;BME280;38483;42.620;25.394;2023-09-19T01:17:16;97434.75;;;16.42;77.07
52591;BME280;38483;42.620;25.394;2023-09-19T01:31:09;97414.25;;;15.93;79.07
52591;BME280;38483;42.620;25.394;2023-09-19T01:34:00;97433.66;;;16.03;79.62
52591;BME280;38483;42.620;25.394;2023-09-19T01:36:35;97431.44;;;16.11;79.12
52591;BME280;38483;42.620;25.394;2023-09-19T01:39:13;97437.88;;;16.06;79.62
52591;BME280;38483;42.620;25.394;2023-09-19T01:44:31;97429.13;;;16.07;79.02
52591;BME280;38483;42.620;25.394;2023-09-19T01:47:09;97424.81;;;16.06;79.02
52591;BME280;38483;42.620;25.394;2023-09-19T01:49:44;97423.59;;;15.97;79.60
52591;BME280;38483;42.620;25.394;2023-09-19T01:52:13;97412.13;;;15.72;80.91
52591;BME280;38483;42.620;25.394;2023-09-19T01:54:46;97419.38;;;15.81;81.26
52591;BME280;38483;42.620;25.394;2023-09-19T01:57:35;97413.03;;;16.27;79.81
52591;BME280;38483;42.620;25.394;2023-09-19T02:00:10;97421.13;;;16.65;78.04
52591;BME280;38483;42.620;25.394;2023-09-19T02:02:42;97420.47;;;16.88;76.66
52591;BME280;38483;42.620;25.394;2023-09-19T02:05:09;97415.44;;;16.85;76.47
52591;BME280;38483;42.620;25.394;2023-09-19T02:07:38;97412.72;;;16.86;76.87
52591;BME280;38483;42.620;25.394;2023-09-19T02:10:06;97419.25;;;16.93;76.47
52591;BME280;38483;42.620;25.394;2023-09-19T02:12:33;97413.34;;;16.90;76.29
52591;BME280;38483;42.620;25.394;2023-09-19T02:15:04;97417.25;;;16.70;76.57
52591;BME280;38483;42.620;25.394;2023-09-19T02:17:34;97415.34;;;16.46;77.54
52591;BME280;38483;42.620;25.394;2023-09-19T02:20:02;97415.53;;;16.28;77.70
52591;BME280;38483;42.620;25.394;2023-09-19T02:22:37;97411.56;;;16.23;77.77
52591;BME280;38483;42.620;25.394;2023-09-19T02:25:25;97412.94;;;16.14;77.96
52591;BME280;38483;42.620;25.394;2023-09-19T02:27:53;97409.97;;;16.06;77.80
52591;BME280;38483;42.620;25.394;2023-09-19T02:30:25;97394.41;;;16.05;77.83
52591;BME280;38483;42.620;25.394;2023-09-19T02:32:52;97395.34;;;15.90;78.67
52591;BME280;38483;42.620;25.394;2023-09-19T02:35:19;97392.25;;;15.83;78.98
52591;BME280;38483;42.620;25.394;2023-09-19T02:37:47;97383.94;;;15.77;79.25
52591;BME280;38483;42.620;25.394;2023-09-19T02:40:15;97397.59;;;15.82;79.31
52591;BME280;38483;42.620;25.394;2023-09-19T02:42:52;97401.03;;;15.96;79.33
52591;BME280;38483;42.620;25.394;2023-09-19T02:45:21;97398.56;;;16.07;78.42
52591;BME280;38483;42.620;25.394;2023-09-19T02:47:50;97400.84;;;15.71;79.94
52591;BME280;38483;42.620;25.394;2023-09-19T02:50:17;97395.03;;;15.66;80.17
52591;BME280;38483;42.620;25.394;2023-09-19T02:52:45;97381.03;;;15.39;80.74
52591;BME280;38483;42.620;25.394;2023-09-19T02:55:18;97386.78;;;15.00;82.76
52591;BME280;38483;42.620;25.394;2023-09-19T02:57:51;97397.31;;;15.28;81.73
52591;BME280;38483;42.620;25.394;2023-09-19T03:00:19;97365.50;;;15.22;81.31
52591;BME280;38483;42.620;25.394;2023-09-19T03:02:49;97370.09;;;15.32;80.86
52591;BME280;38483;42.620;25.394;2023-09-19T03:05:17;97371.00;;;15.61;79.72
52591;BME280;38483;42.620;25.394;2023-09-19T03:07:45;97395.13;;;15.79;79.33
52591;BME280;38483;42.620;25.394;2023-09-19T03:10:20;97393.47;;;16.06;77.86
52591;BME280;38483;42.620;25.394;2023-09-19T03:12:47;97381.25;;;16.06;77.31
52591;BME280;38483;42.620;25.394;2023-09-19T03:15:15;97380.50;;;15.90;77.61
52591;BME280;38483;42.620;25.394;2023-09-19T03:17:45;97393.28;;;15.81;78.39
52591;BME280;38483;42.620;25.394;2023-09-19T03:20:13;97364.47;;;15.68;78.36
52591;BME280;38483;42.620;25.394;2023-09-19T03:22:41;97370.03;;;15.48;79.07
52591;BME280;38483;42.620;25.394;2023-09-19T03:25:09;97388.72;;;15.84;78.14
52591;BME280;38483;42.620;25.394;2023-09-19T03:27:40;97391.69;;;16.06;77.45
52591;BME280;38483;42.620;25.394;2023-09-19T03:30:09;97394.84;;;16.25;76.57
52591;BME280;38483;42.620;25.394;2023-09-19T03:32:36;97357.91;;;15.89;76.27
52591;BME280;38483;42.620;25.394;2023-09-19T03:35:04;97395.59;;;15.43;78.83
52591;BME280;38483;42.620;25.394;2023-09-19T03:37:34;97381.25;;;15.20;79.99
52591;BME280;38483;42.620;25.394;2023-09-19T03:40:01;97356.56;;;15.26;78.99
52591;BME280;38483;42.620;25.394;2023-09-19T03:42:32;97376.13;;;15.77;77.98
52591;BME280;38483;42.620;25.394;2023-09-19T03:44:59;97395.03;;;16.08;76.45
52591;BME280;38483;42.620;25.394;2023-09-19T03:47:29;97387.97;;;15.82;76.95
52591;BME280;38483;42.620;25.394;2023-09-19T03:49:58;97389.66;;;15.69;77.40
52591;BME280;38483;42.620;25.394;2023-09-19T03:52:25;97387.19;;;15.66;77.08
52591;BME280;38483;42.620;25.394;2023-09-19T03:54:52;97409.28;;;15.46;77.80
52591;BME280;38483;42.620;25.394;2023-09-19T03:57:19;97403.00;;;15.05;80.19
52591;BME280;38483;42.620;25.394;2023-09-19T03:59:47;97401.34;;;15.04;81.24
52591;BME280;38483;42.620;25.394;2023-09-19T04:02:15;97405.22;;;14.97;81.29
52591;BME280;38483;42.620;25.394;2023-09-19T04:04:51;97395.13;;;15.21;80.76
52591;BME280;38483;42.620;25.394;2023-09-19T04:07:19;97411.50;;;15.38;79.92
52591;BME280;38483;42.620;25.394;2023-09-19T04:09:49;97398.84;;;15.46;80.19
52591;BME280;38483;42.620;25.394;2023-09-19T04:12:36;97387.25;;;15.36;79.88
52591;BME280;38483;42.620;25.394;2023-09-19T04:15:57;97414.81;;;15.26;80.99
52591;BME280;38483;42.620;25.394;2023-09-19T04:18:58;97374.72;;;14.84;82.05
52591;BME280;38483;42.620;25.394;2023-09-19T04:21:25;97376.16;;;14.74;82.29
52591;BME280;38483;42.620;25.394;2023-09-19T04:23:54;97394.31;;;14.91;81.78
52591;BME280;38483;42.620;25.394;2023-09-19T04:26:22;97405.94;;;14.69;82.58
52591;BME280;38483;42.620;25.394;2023-09-19T04:28:49;97406.94;;;14.83;82.13
52591;BME280;38483;42.620;25.394;2023-09-19T04:31:16;97388.53;;;14.70;81.99
52591;BME280;38483;42.620;25.394;2023-09-19T04:33:45;97374.50;;;14.73;82.12
52591;BME280;38483;42.620;25.394;2023-09-19T04:36:14;97389.69;;;14.80;81.17
52591;BME280;38483;42.620;25.394;2023-09-19T04:39:01;97376.75;;;15.08;80.53
52591;BME280;38483;42.620;25.394;2023-09-19T04:41:32;97394.38;;;15.19;80.16
52591;BME280;38483;42.620;25.394;2023-09-19T04:43:59;97392.34;;;15.24;79.85
52591;BME280;38483;42.620;25.394;2023-09-19T04:46:26;97396.47;;;15.28;80.06
52591;BME280;38483;42.620;25.394;2023-09-19T04:48:53;97405.66;;;15.49;79.62
52591;BME280;38483;42.620;25.394;2023-09-19T04:51:21;97403.44;;;15.71;78.63
52591;BME280;38483;42.620;25.394;2023-09-19T04:53:49;97407.16;;;15.95;77.50
52591;BME280;38483;42.620;25.394;2023-09-19T04:56:16;97396.25;;;16.17;76.38
52591;BME280;38483;42.620;25.394;2023-09-19T04:58:43;97387.94;;;16.24;75.91
52591;BME280;38483;42.620;25.394;2023-09-19T05:01:10;97409.69;;;16.25;76.18
52591;BME280;38483;42.620;25.394;2023-09-19T05:03:39;97395.31;;;16.32;76.27
52591;BME280;38483;42.620;25.394;2023-09-19T05:06:06;97407.78;;;16.55;75.29
52591;BME280;38483;42.620;25.394;2023-09-19T05:08:33;97398.00;;;16.71;74.75
52591;BME280;38483;42.620;25.394;2023-09-19T05:11:04;97410.00;;;16.88;74.12
52591;BME280;38483;42.620;25.394;2023-09-19T05:13:31;97393.25;;;16.90;73.77
52591;BME280;38483;42.620;25.394;2023-09-19T05:16:01;97399.22;;;16.92;73.65
52591;BME280;38483;42.620;25.394;2023-09-19T05:18:29;97409.38;;;16.84;73.71
52591;BME280;38483;42.620;25.394;2023-09-19T05:20:56;97416.56;;;16.54;74.74
52591;BME280;38483;42.620;25.394;2023-09-19T05:23:23;97412.72;;;16.46;75.71
52591;BME280;38483;42.620;25.394;2023-09-19T05:25:50;97419.66;;;16.18;76.93
52591;BME280;38483;42.620;25.394;2023-09-19T05:28:18;97417.06;;;16.04;77.50
52591;BME280;38483;42.620;25.394;2023-09-19T05:30:45;97404.03;;;15.90;78.28
52591;BME280;38483;42.620;25.394;2023-09-19T05:33:15;97363.81;;;15.79;78.34
52591;BME280;38483;42.620;25.394;2023-09-19T05:35:45;97391.22;;;16.00;78.43
52591;BME280;38483;42.620;25.394;2023-09-19T05:38:13;97412.50;;;16.08;78.52
52591;BME280;38483;42.620;25.394;2023-09-19T05:40:42;97401.00;;;16.24;78.03
52591;BME280;38483;42.620;25.394;2023-09-19T05:43:09;97370.44;;;15.98;78.92
52591;BME280;38483;42.620;25.394;2023-09-19T05:45:37;97398.19;;;16.27;78.39
52591;BME280;38483;42.620;25.394;2023-09-19T05:48:09;97402.47;;;16.57;77.98
52591;BME280;38483;42.620;25.394;2023-09-19T05:50:37;97398.56;;;16.50;78.39
52591;BME280;38483;42.620;25.394;2023-09-19T05:53:05;97406.34;;;16.64;77.64
52591;BME280;38483;42.620;25.394;2023-09-19T05:55:36;97373.06;;;16.39;77.61
52591;BME280;38483;42.620;25.394;2023-09-19T05:58:04;97385.59;;;16.34;78.10
52591;BME280;38483;42.620;25.394;2023-09-19T06:00:32;97392.19;;;16.40;78.88
52591;BME280;38483;42.620;25.394;2023-09-19T06:02:59;97398.91;;;16.44;79.12
52591;BME280;38483;42.620;25.394;2023-09-19T06:05:27;97400.22;;;16.51;79.40
52591;BME280;38483;42.620;25.394;2023-09-19T06:07:56;97377.06;;;16.59;78.85
52591;BME280;38483;42.620;25.394;2023-09-19T06:10:27;97407.38;;;16.88;77.75
52591;BME280;38483;42.620;25.394;2023-09-19T06:12:56;97402.09;;;17.41;76.10
52591;BME280;38483;42.620;25.394;2023-09-19T06:15:25;97392.38;;;17.81;74.50
52591;BME280;38483;42.620;25.394;2023-09-19T06:17:54;97402.34;;;17.88;74.31
52591;BME280;38483;42.620;25.394;2023-09-19T06:20:23;97373.28;;;17.66;74.34
52591;BME280;38483;42.620;25.394;2023-09-19T06:22:53;97400.53;;;18.02;74.17
52591;BME280;38483;42.620;25.394;2023-09-19T06:25:23;97398.81;;;18.26;73.11
52591;BME280;38483;42.620;25.394;2023-09-19T06:27:54;97399.94;;;18.47;73.36
52591;BME280;38483;42.620;25.394;2023-09-19T06:30:26;97399.97;;;18.71;73.05
52591;BME280;38483;42.620;25.394;2023-09-19T06:32:57;97403.38;;;18.60;72.53
52591;BME280;38483;42.620;25.394;2023-09-19T06:35:25;97398.88;;;18.49;73.73
52591;BME280;38483;42.620;25.394;2023-09-19T06:37:53;97400.38;;;18.77;72.79
52591;BME280;38483;42.620;25.394;2023-09-19T06:40:20;97406.72;;;18.62;73.58
52591;BME280;38483;42.620;25.394;2023-09-19T06:42:52;97386.63;;;18.50;73.96
52591;BME280;38483;42.620;25.394;2023-09-19T06:45:23;97393.66;;;18.97;72.49
52591;BME280;38483;42.620;25.394;2023-09-19T06:47:54;97401.25;;;19.12;71.54
52591;BME280;38483;42.620;25.394;2023-09-19T06:50:26;97390.19;;;19.66;69.09
52591;BME280;38483;42.620;25.394;2023-09-19T06:52:55;97392.81;;;19.77;68.49
52591;BME280;38483;42.620;25.394;2023-09-19T06:55:25;97395.72;;;20.07;68.55
52591;BME280;38483;42.620;25.394;2023-09-19T06:57:59;97397.97;;;19.89;67.25
52591;BME280;38483;42.620;25.394;2023-09-19T07:00:26;97395.09;;;19.81;68.22
52591;BME280;38483;42.620;25.394;2023-09-19T07:02:59;97390.38;;;20.19;67.67
52591;BME280;38483;42.620;25.394;2023-09-19T07:05:32;97393.34;;;20.37;65.58
52591;BME280;38483;42.620;25.394;2023-09-19T07:08:00;97394.50;;;20.66;65.47
52591;BME280;38483;42.620;25.394;2023-09-19T07:10:28;97397.25;;;20.96;62.91
52591;BME280;38483;42.620;25.394;2023-09-19T07:13:00;97388.78;;;21.25;62.01
52591;BME280;38483;42.620;25.394;2023-09-19T07:15:29;97390.66;;;21.34;61.46
52591;BME280;38483;42.620;25.394;2023-09-19T07:17:57;97362.44;;;21.25;61.23
52591;BME280;38483;42.620;25.394;2023-09-19T07:20:27;97387.91;;;21.56;60.32
52591;BME280;38483;42.620;25.394;2023-09-19T07:22:59;97393.13;;;21.67;58.95
52591;BME280;38483;42.620;25.394;2023-09-19T07:25:27;97383.78;;;21.42;58.13
52591;BME280;38483;42.620;25.394;2023-09-19T07:27:55;97373.91;;;21.14;60.05
52591;BME280;38483;42.620;25.394;2023-09-19T07:30:23;97389.44;;;21.38;60.29
52591;BME280;38483;42.620;25.394;2023-09-19T07:32:50;97382.00;;;21.43;59.68
52591;BME280;38483;42.620;25.394;2023-09-19T07:35:18;97327.38;;;21.03;59.13
52591;BME280;38483;42.620;25.394;2023-09-19T07:37:49;97378.50;;;21.22;58.84
52591;BME280;38483;42.620;25.394;2023-09-19T07:40:18;97371.63;;;20.98;59.72
52591;BME280;38483;42.620;25.394;2023-09-19T07:42:46;97377.97;;;21.07;61.30
52591;BME280;38483;42.620;25.394;2023-09-19T07:45:14;97382.56;;;21.67;58.38
52591;BME280;38483;42.620;25.394;2023-09-19T07:47:48;97368.34;;;21.79;57.89
52591;BME280;38483;42.620;25.394;2023-09-19T07:50:17;97320.06;;;21.58;56.42
52591;BME280;38483;42.620;25.394;2023-09-19T07:52:49;97378.44;;;22.25;55.86
52591;BME280;38483;42.620;25.394;2023-09-19T07:55:20;97371.91;;;22.69;54.95
52591;BME280;38483;42.620;25.394;2023-09-19T07:57:52;97374.00;;;22.75;54.92
52591;BME280;38483;42.620;25.394;2023-09-19T08:00:19;97365.38;;;22.82;54.27
52591;BME280;38483;42.620;25.394;2023-09-19T08:02:46;97366.91;;;22.75;54.89
52591;BME280;38483;42.620;25.394;2023-09-19T08:05:27;97347.72;;;22.63;55.17
52591;BME280;38483;42.620;25.394;2023-09-19T08:07:54;97363.84;;;22.80;54.33
52591;BME280;38483;42.620;25.394;2023-09-19T08:10:23;97364.25;;;22.65;54.27
52591;BME280;38483;42.620;25.394;2023-09-19T08:12:54;97362.91;;;22.31;54.70
52591;BME280;38483;42.620;25.394;2023-09-19T08:15:24;97350.72;;;22.00;56.01
52591;BME280;38483;42.620;25.394;2023-09-19T08:17:52;97351.34;;;22.23;55.54
52591;BME280;38483;42.620;25.394;2023-09-19T08:20:20;97348.84;;;22.21;55.06
52591;BME280;38483;42.620;25.394;2023-09-19T08:22:51;97352.59;;;22.19;54.91
52591;BME280;38483;42.620;25.394;2023-09-19T08:25:22;97349.81;;;22.20;54.79
52591;BME280;38483;42.620;25.394;2023-09-19T08:27:50;97352.66;;;22.08;54.77
52591;BME280;38483;42.620;25.394;2023-09-19T08:30:20;97344.38;;;22.12;55.27
52591;BME280;38483;42.620;25.394;2023-09-19T08:32:59;97335.34;;;22.15;55.21
52591;BME280;38483;42.620;25.394;2023-09-19T08:35:27;97325.66;;;22.34;54.48
52591;BME280;38483;42.620;25.394;2023-09-19T08:37:55;97330.69;;;22.37;54.79
52591;BME280;38483;42.620;25.394;2023-09-19T08:40:23;97334.75;;;22.02;55.27
52591;BME280;38483;42.620;25.394;2023-09-19T08:42:56;97332.25;;;22.00;54.14
52591;BME280;38483;42.620;25.394;2023-09-19T08:45:24;97330.38;;;22.21;53.10
52591;BME280;38483;42.620;25.394;2023-09-19T08:50:29;97325.28;;;21.99;54.41
52591;BME280;38483;42.620;25.394;2023-09-19T08:53:21;97324.97;;;22.23;54.28
52591;BME280;38483;42.620;25.394;2023-09-19T08:56:18;97323.16;;;22.23;53.81
52591;BME280;38483;42.620;25.394;2023-09-19T08:58:51;97317.66;;;22.55;53.29
52591;BME280;38483;42.620;25.394;2023-09-19T09:01:21;97311.59;;;22.74;51.89
52591;BME280;38483;42.620;25.394;2023-09-19T09:03:56;97303.25;;;22.88;52.18
52591;BME280;38483;42.620;25.394;2023-09-19T09:06:24;97305.75;;;22.60;51.43
52591;BME280;38483;42.620;25.394;2023-09-19T09:08:52;97295.47;;;22.77;51.56
52591;BME280;38483;42.620;25.394;2023-09-19T09:11:20;97302.84;;;23.02;51.32
52591;BME280;38483;42.620;25.394;2023-09-19T09:13:48;97283.50;;;23.11;50.44
52591;BME280;38483;42.620;25.394;2023-09-19T09:16:15;97292.91;;;23.42;50.39
52591;BME280;38483;42.620;25.394;2023-09-19T09:18:46;97287.09;;;23.38;49.64
52591;BME280;38483;42.620;25.394;2023-09-19T09:21:29;97277.50;;;23.09;50.16
52591;BME280;38483;42.620;25.394;2023-09-19T09:23:56;97286.94;;;23.30;50.53
52591;BME280;38483;42.620;25.394;2023-09-19T09:29:06;97284.88;;;23.15;50.47
52591;BME280;38483;42.620;25.394;2023-09-19T09:31:33;97267.94;;;22.89;51.05
52591;BME280;38483;42.620;25.394;2023-09-19T09:34:01;97276.84;;;22.97;51.28
52591;BME280;38483;42.620;25.394;2023-09-19T09:36:38;97264.59;;;22.96;51.14
52591;BME280;38483;42.620;25.394;2023-09-19T09:39:07;97267.59;;;23.49;49.92
52591;BME280;38483;42.620;25.394;2023-09-19T09:41:52;97266.06;;;23.83;49.69
52591;BME280;38483;42.620;25.394;2023-09-19T09:44:19;97261.97;;;23.89;49.00
52591;BME280;38483;42.620;25.394;2023-09-19T09:46:47;97261.63;;;24.11;48.01
52591;BME280;38483;42.620;25.394;2023-09-19T09:49:25;97258.75;;;24.22;48.01
52591;BME280;38483;42.620;25.394;2023-09-19T09:51:59;97245.06;;;23.99;48.18
52591;BME280;38483;42.620;25.394;2023-09-19T09:54:28;97243.78;;;23.86;49.12
52591;BME280;38483;42.620;25.394;2023-09-19T09:57:14;97261.47;;;24.12;48.26
52591;BME280;38483;42.620;25.394;2023-09-19T10:04:53;97255.81;;;23.71;47.75
52591;BME280;38483;42.620;25.394;2023-09-19T10:07:40;97229.50;;;23.69;49.12
52591;BME280;38483;42.620;25.394;2023-09-19T10:10:30;97243.31;;;24.17;47.88
52591;BME280;38483;42.620;25.394;2023-09-19T10:13:09;97236.53;;;24.33;46.25
52591;BME280;38483;42.620;25.394;2023-09-19T10:15:47;97246.84;;;24.36;46.52
52591;BME280;38483;42.620;25.394;2023-09-19T10:18:26;97240.84;;;24.16;46.43
52591;BME280;38483;42.620;25.394;2023-09-19T10:20:56;97229.19;;;23.99;46.26
52591;BME280;38483;42.620;25.394;2023-09-19T10:23:24;97235.19;;;24.29;46.20
52591;BME280;38483;42.620;25.394;2023-09-19T10:25:54;97237.34;;;24.15;46.03
52591;BME280;38483;42.620;25.394;2023-09-19T10:28:22;97232.13;;;24.23;45.59
52591;BME280;38483;42.620;25.394;2023-09-19T10:30:51;97225.94;;;24.33;45.69
52591;BME280;38483;42.620;25.394;2023-09-19T10:33:21;97220.97;;;24.30;45.45
52591;BME280;38483;42.620;25.394;2023-09-19T10:35:50;97221.09;;;24.28;45.56
52591;BME280;38483;42.620;25.394;2023-09-19T10:38:24;97221.78;;;24.30;45.39
52591;BME280;38483;42.620;25.394;2023-09-19T10:40:54;97219.13;;;24.30;44.80
52591;BME280;38483;42.620;25.394;2023-09-19T10:43:25;97217.34;;;24.31;44.58
52591;BME280;38483;42.620;25.394;2023-09-19T10:45:53;97192.38;;;24.33;44.14
52591;BME280;38483;42.620;25.394;2023-09-19T10:48:24;97213.53;;;24.51;42.91
52591;BME280;38483;42.620;25.394;2023-09-19T10:51:07;97211.06;;;24.49;42.25
52591;BME280;38483;42.620;25.394;2023-09-19T10:56:39;97198.34;;;24.70;41.73
52591;BME280;38483;42.620;25.394;2023-09-19T10:59:16;97195.91;;;25.20;41.91
52591;BME280;38483;42.620;25.394;2023-09-19T11:01:48;97192.13;;;25.48;41.85
52591;BME280;38483;42.620;25.394;2023-09-19T11:04:27;97195.75;;;25.47;42.55
52591;BME280;38483;42.620;25.394;2023-09-19T11:07:03;97190.53;;;25.38;42.32
52591;BME280;38483;42.620;25.394;2023-09-19T11:09:51;97184.72;;;25.34;42.62
52591;BME280;38483;42.620;25.394;2023-09-19T11:15:08;97176.09;;;25.32;41.98
52591;BME280;38483;42.620;25.394;2023-09-19T11:17:38;97153.66;;;25.27;42.45
52591;BME280;38483;42.620;25.394;2023-09-19T11:25:42;97160.28;;;25.48;40.45
52591;BME280;38483;42.620;25.394;2023-09-19T11:30:52;97150.59;;;25.39;40.29
52591;BME280;38483;42.620;25.394;2023-09-19T11:36:15;97132.09;;;24.88;41.70
52591;BME280;38483;42.620;25.394;2023-09-19T11:43:53;97141.25;;;24.93;42.83
52591;BME280;38483;42.620;25.394;2023-09-19T11:46:27;97145.16;;;24.89;43.13
52591;BME280;38483;42.620;25.394;2023-09-19T11:49:05;97142.16;;;24.84;41.99
52591;BME280;38483;42.620;25.394;2023-09-19T11:51:43;97121.34;;;24.72;42.47
52591;BME280;38483;42.620;25.394;2023-09-19T11:54:12;97120.69;;;24.70;42.42
52591;BME280;38483;42.620;25.394;2023-09-19T11:56:45;97126.28;;;24.67;43.24
52591;BME280;38483;42.620;25.394;2023-09-19T11:59:21;97120.56;;;24.54;43.31
52591;BME280;38483;42.620;25.394;2023-09-19T12:01:53;97111.81;;;24.36;42.60
52591;BME280;38483;42.620;25.394;2023-09-19T12:04:53;97109.59;;;24.49;43.11
52591;BME280;38483;42.620;25.394;2023-09-19T12:07:20;97101.28;;;24.44;43.92
52591;BME280;38483;42.620;25.394;2023-09-19T12:09:51;97104.63;;;24.71;42.53
52591;BME280;38483;42.620;25.394;2023-09-19T12:12:30;97105.28;;;24.91;42.37
52591;BME280;38483;42.620;25.394;2023-09-19T12:14:59;97096.66;;;24.89;42.23
52591;BME280;38483;42.620;25.394;2023-09-19T12:17:36;97082.78;;;24.95;42.25
52591;BME280;38483;42.620;25.394;2023-09-19T12:20:04;97094.53;;;25.26;41.83
52591;BME280;38483;42.620;25.394;2023-09-19T12:22:42;97097.28;;;25.42;41.42
52591;BME280;38483;42.620;25.394;2023-09-19T12:25:14;97076.09;;;25.58;40.69
52591;BME280;38483;42.620;25.394;2023-09-19T12:27:47;97098.41;;;25.90;40.83
52591;BME280;38483;42.620;25.394;2023-09-19T12:30:27;97102.72;;;25.99;41.07
52591;BME280;38483;42.620;25.394;2023-09-19T12:32:55;97095.09;;;25.96;40.89
52591;BME280;38483;42.620;25.394;2023-09-19T12:35:32;97094.25;;;26.03;40.56
52591;BME280;38483;42.620;25.394;2023-09-19T12:38:03;97091.13;;;26.08;41.19
52591;BME280;38483;42.620;25.394;2023-09-19T12:40:32;97095.47;;;26.09;41.09
52591;BME280;38483;42.620;25.394;2023-09-19T12:43:01;97072.16;;;25.95;41.46
52591;BME280;38483;42.620;25.394;2023-09-19T12:45:32;97093.09;;;26.06;41.30
52591;BME280;38483;42.620;25.394;2023-09-19T12:48:21;97087.03;;;26.29;41.05
52591;BME280;38483;42.620;25.394;2023-09-19T12:51:11;97075.53;;;26.45;40.64
52591;BME280;38483;42.620;25.394;2023-09-19T12:53:44;97092.47;;;26.68;40.27
52591;BME280;38483;42.620;25.394;2023-09-19T12:56:14;97079.69;;;26.55;40.42
52591;BME280;38483;42.620;25.394;2023-09-19T13:01:18;97073.53;;;26.63;40.73
52591;BME280;38483;42.620;25.394;2023-09-19T13:03:45;97082.50;;;26.70;40.45
52591;BME280;38483;42.620;25.394;2023-09-19T13:06:13;97075.34;;;26.87;40.65
52591;BME280;38483;42.620;25.394;2023-09-19T13:08:43;97077.81;;;26.88;40.46
52591;BME280;38483;42.620;25.394;2023-09-19T13:11:17;97066.88;;;26.67;40.22
52591;BME280;38483;42.620;25.394;2023-09-19T13:13:47;97068.56;;;26.52;40.44
52591;BME280;38483;42.620;25.394;2023-09-19T13:16:22;97060.41;;;26.70;40.29
52591;BME280;38483;42.620;25.394;2023-09-19T13:18:53;97063.88;;;26.70;40.54
52591;BME280;38483;42.620;25.394;2023-09-19T13:21:34;97056.22;;;26.83;40.14
52591;BME280;38483;42.620;25.394;2023-09-19T13:26:46;97045.09;;;26.88;39.83
52591;BME280;38483;42.620;25.394;2023-09-19T13:29:13;97048.22;;;26.99;40.71
52591;BME280;38483;42.620;25.394;2023-09-19T13:31:48;97055.38;;;26.99;39.71
52591;BME280;38483;42.620;25.394;2023-09-19T13:34:16;97010.09;;;26.68;39.58
52591;BME280;38483;42.620;25.394;2023-09-19T13:36:44;97050.28;;;26.57;40.18
52591;BME280;38483;42.620;25.394;2023-09-19T13:39:11;97043.16;;;26.49;40.87
52591;BME280;38483;42.620;25.394;2023-09-19T13:41:47;97047.31;;;26.52;40.82
52591;BME280;38483;42.620;25.394;2023-09-19T13:44:15;97041.66;;;26.55;40.47
52591;BME280;38483;42.620;25.394;2023-09-19T13:46:44;97043.66;;;26.45;40.60
52591;BME280;38483;42.620;25.394;2023-09-19T13:49:14;97046.50;;;26.35;40.59
52591;BME280;38483;42.620;25.394;2023-09-19T13:51:42;97022.44;;;26.37;40.28
52591;BME280;38483;42.620;25.394;2023-09-19T13:54:11;97034.03;;;26.36;40.67
52591;BME280;38483;42.620;25.394;2023-09-19T13:56:39;97034.53;;;26.47;40.58
52591;BME280;38483;42.620;25.394;2023-09-19T13:59:07;97026.38;;;26.49;40.24
52591;BME280;38483;42.620;25.394;2023-09-19T14:01:34;97001.38;;;26.27;39.92
52591;BME280;38483;42.620;25.394;2023-09-19T14:04:01;97019.25;;;26.57;40.22
52591;BME280;38483;42.620;25.394;2023-09-19T14:06:29;97003.47;;;26.56;40.21